Time;durP1;ratioP1;P1;durP2;ratioP2;P2;SDS_P1;SDS_P2;PMS_P1;PMS_P2;Temp;Humidity;BMP_temperature;BMP_pressure;BME280_temperature;BME280_humidity;BME280_pressure;Samples;Min_cycle;Max_cycle;Signal;HPM_P1;HPM_P2
2022/06/22 08:13:23;;;;;;;1.95;1.70;;;;;;;14.72;84.92;97123.14;1832402;75;22697;-65
2022/06/22 08:16:00;;;;;;;2.42;1.30;;;;;;;14.65;85.82;97135.04;1810104;78;21477;-65
2022/06/22 08:18:27;;;;;;;1.30;1.20;;;;;;;14.69;86.27;97138.07;1784688;77;21367;-60
2022/06/22 08:20:54;;;;;;;3.67;1.22;;;;;;;14.76;86.49;97151.77;1769567;78;20923;-66
2022/06/22 08:23:24;;;;;;;3.37;1.35;;;;;;;14.79;83.68;97147.62;1779261;79;21049;-70
2022/06/22 08:25:51;;;;;;;2.35;1.37;;;;;;;14.88;84.46;97145.03;1752423;79;21554;-62
2022/06/22 08:28:20;;;;;;;1.95;1.20;;;;;;;14.98;83.95;97155.90;1757097;79;21492;-66
2022/06/22 08:30:49;;;;;;;4.33;1.20;;;;;;;15.05;83.66;97152.87;1736137;81;21645;-61
2022/06/22 08:33:30;;;;;;;2.45;1.32;;;;;;;15.06;82.65;97152.31;1765650;80;21021;-65
2022/06/22 08:36:07;;;;;;;3.58;1.45;;;;;;;15.03;82.65;97157.81;1756062;80;21430;-63
2022/06/22 08:39:05;;;;;;;3.08;1.45;;;;;;;15.10;83.85;97166.68;1750859;80;21003;-64
2022/06/22 08:42:13;;;;;;;4.62;1.52;;;;;;;15.21;82.50;97167.02;1755768;80;21077;-64
2022/06/22 08:45:17;;;;;;;2.08;1.40;;;;;;;15.24;81.96;97177.14;1778146;80;21486;-60
2022/06/22 08:48:22;;;;;;;1.72;1.20;;;;;;;15.26;80.88;97170.84;1779564;80;20936;-60
2022/06/22 08:51:22;;;;;;;2.33;1.40;;;;;;;15.35;81.90;97175.55;1779005;80;20935;-61
2022/06/22 08:54:11;;;;;;;3.00;1.30;;;;;;;15.46;81.16;97169.92;1760333;80;21106;-57
2022/06/22 08:56:59;;;;;;;3.10;1.40;;;;;;;15.50;80.51;97173.50;1771618;80;21000;-61
2022/06/22 09:00:04;;;;;;;2.35;1.40;;;;;;;15.51;80.59;97177.78;1764302;80;21138;-64
2022/06/22 09:03:19;;;;;;;3.33;1.40;;;;;;;15.48;79.78;97181.16;1758554;80;20902;-63
2022/06/22 09:06:13;;;;;;;4.80;1.40;;;;;;;15.51;80.40;97177.78;1763590;80;21339;-64
2022/06/22 09:09:04;;;;;;;3.08;1.47;;;;;;;15.51;79.74;97176.44;1760662;80;20953;-68
2022/06/22 09:11:58;;;;;;;4.47;1.47;;;;;;;15.49;80.50;97174.64;1764561;80;21071;-64
2022/06/22 09:14:57;;;;;;;3.00;1.50;;;;;;;15.55;80.99;97177.31;1729377;81;21125;-62
2022/06/22 09:17:58;;;;;;;2.77;1.55;;;;;;;15.64;80.71;97175.27;1749121;80;21119;-69
2022/06/22 09:20:52;;;;;;;2.22;1.40;;;;;;;15.74;80.42;97184.23;1757161;80;21000;-60
2022/06/22 09:23:54;;;;;;;2.27;1.77;;;;;;;15.83;80.01;97180.83;1813295;77;20950;-61
2022/06/22 09:26:48;;;;;;;2.75;1.60;;;;;;;16.00;79.09;97189.20;1811185;77;21067;-65
2022/06/22 09:30:09;;;;;;;3.92;1.60;;;;;;;16.19;79.19;97199.59;1841282;77;21234;-71
2022/06/22 09:32:52;;;;;;;1.75;1.40;;;;;;;16.30;78.45;97193.90;1831205;77;20922;-65
2022/06/22 09:35:46;;;;;;;3.85;1.52;;;;;;;16.37;76.49;97191.38;1787836;77;21012;-60
2022/06/22 09:38:26;;;;;;;1.77;1.62;;;;;;;16.39;77.31;97178.31;1818569;77;20966;-62
2022/06/22 09:41:34;;;;;;;3.80;1.75;;;;;;;16.47;77.64;97179.84;1806552;77;20925;-59
2022/06/22 09:44:29;;;;;;;2.00;1.45;;;;;;;16.51;75.47;97180.73;1818268;77;21333;-62
2022/06/22 09:47:07;;;;;;;2.98;1.65;;;;;;;16.62;76.56;97191.28;1811690;77;20927;-66
2022/06/22 09:49:56;;;;;;;4.55;1.65;;;;;;;16.87;75.97;97194.02;1828278;77;20911;-60
2022/06/22 09:53:01;;;;;;;4.70;1.70;;;;;;;17.05;75.83;97179.02;1826114;77;20903;-65
2022/06/22 09:56:22;;;;;;;5.10;1.60;;;;;;;17.13;73.58;97187.50;1785529;78;20892;-65
2022/06/22 09:59:20;;;;;;;2.55;1.50;;;;;;;17.07;72.97;97178.09;1785244;80;21208;-64
2022/06/22 10:02:22;;;;;;;3.08;1.37;;;;;;;17.17;73.61;97180.83;1809973;78;20870;-60
2022/06/22 10:05:21;;;;;;;4.17;1.62;;;;;;;17.44;71.84;97183.38;1773941;80;21018;-64
2022/06/22 10:08:15;;;;;;;1.65;1.35;;;;;;;17.81;73.00;97176.23;1820154;78;21010;-65
2022/06/22 10:11:05;;;;;;;3.22;1.30;;;;;;;18.18;72.26;97182.80;1788193;80;21019;-65
2022/06/22 10:13:52;;;;;;;1.87;1.37;;;;;;;18.44;68.78;97189.09;1808205;78;21076;-69
2022/06/22 10:17:13;;;;;;;4.85;1.37;;;;;;;18.64;68.19;97174.16;1820325;78;20993;-63
2022/06/22 10:20:15;;;;;;;3.42;1.15;;;;;;;18.79;65.71;97188.98;1788077;78;20879;-58
2022/06/22 10:23:14;;;;;;;1.87;1.15;;;;;;;18.84;63.66;97173.73;1773171;78;21014;-61
2022/06/22 10:26:02;;;;;;;4.17;1.30;;;;;;;18.85;64.72;97179.95;1784535;77;20979;-58
2022/06/22 10:29:07;;;;;;;3.58;1.10;;;;;;;18.82;62.69;97184.73;1785238;80;21072;-61
2022/06/22 10:32:00;;;;;;;2.67;1.22;;;;;;;18.75;63.59;97188.11;1785245;80;20847;-61
2022/06/22 10:34:32;;;;;;;3.58;1.22;;;;;;;18.80;62.74;97187.81;1784968;79;20839;-62
2022/06/22 10:37:28;;;;;;;1.80;1.00;;;;;;;18.83;60.99;97187.10;1785287;79;20992;-60
2022/06/22 10:47:36;;;;;;;1.77;1.00;;;;;;;19.04;61.08;97190.16;1785338;80;21389;-61
2022/06/22 10:50:09;;;;;;;3.47;1.27;;;;;;;19.01;59.85;97200.38;1815997;77;20951;-58
2022/06/22 10:53:01;;;;;;;7.37;1.30;;;;;;;19.13;60.71;97189.89;1860949;77;20910;-62
2022/06/22 10:55:48;;;;;;;6.03;1.27;;;;;;;19.29;62.42;97207.41;1860672;77;20970;-62
2022/06/22 10:58:36;;;;;;;3.65;1.20;;;;;;;19.49;57.71;97207.52;1860935;77;21188;-59
2022/06/22 11:01:14;;;;;;;1.72;1.05;;;;;;;19.48;57.70;97204.02;1860627;77;20908;-60
2022/06/22 11:03:57;;;;;;;1.95;1.10;;;;;;;19.38;58.51;97213.39;1860814;77;20950;-69
2022/06/22 11:06:45;;;;;;;3.17;1.07;;;;;;;19.25;57.29;97226.34;1859364;77;21472;-64
2022/06/22 11:09:38;;;;;;;3.27;1.40;;;;;;;19.10;59.95;97209.05;1860757;77;20915;-64
2022/06/22 11:12:50;;;;;;;5.47;1.30;;;;;;;19.26;60.12;97217.06;1860789;77;21664;-61
2022/06/22 11:16:14;;;;;;;2.20;1.10;;;;;;;19.37;58.43;97212.59;1821476;77;21390;-65
2022/06/22 11:19:16;;;;;;;3.90;1.20;;;;;;;19.31;58.49;97217.32;1825964;77;21547;-64
2022/06/22 11:22:27;;;;;;;3.27;0.93;;;;;;;19.29;59.24;97210.87;1819797;77;21532;-64
2022/06/22 11:32:05;;;;;;;2.22;1.00;;;;;;;19.49;56.25;97200.73;1814934;78;20997;-63
2022/06/22 11:34:55;;;;;;;4.95;1.05;;;;;;;19.61;57.57;97210.03;1815533;78;20943;-59
2022/06/22 11:38:15;;;;;;;1.57;0.88;;;;;;;19.89;53.84;97211.77;1817695;78;21485;-59
2022/06/22 11:41:29;;;;;;;1.45;0.90;;;;;;;20.04;53.72;97224.39;1799491;79;20992;-62
2022/06/22 11:44:37;;;;;;;3.08;1.20;;;;;;;19.89;53.41;97223.99;1815741;78;21034;-61
2022/06/22 11:47:26;;;;;;;1.47;0.90;;;;;;;19.97;55.59;97212.64;1772403;76;20943;31
2022/06/22 11:50:32;;;;;;;1.57;0.80;;;;;;;20.45;51.31;97202.94;1769218;80;20979;-65
2022/06/22 11:53:49;;;;;;;1.30;1.00;;;;;;;20.67;50.73;97202.58;1745239;81;20959;-63
2022/06/22 11:57:07;;;;;;;3.05;1.22;;;;;;;20.63;51.66;97210.50;1743919;81;21545;-57
2022/06/22 12:00:03;;;;;;;4.40;0.80;;;;;;;20.56;50.21;97213.15;1766621;81;21117;-62
2022/06/22 12:02:57;;;;;;;5.35;0.93;;;;;;;20.59;51.34;97208.30;1767152;81;21054;-60
2022/06/22 12:05:57;;;;;;;2.72;0.80;;;;;;;20.54;50.24;97229.06;1768878;81;21024;-64
2022/06/22 12:08:55;;;;;;;2.92;0.93;;;;;;;20.65;49.49;97213.63;1746607;82;20935;-63
2022/06/22 12:11:53;;;;;;;4.37;1.05;;;;;;;21.01;51.42;97208.69;1752195;81;21010;-65
2022/06/22 12:17:54;;;;;;;3.75;0.93;;;;;;;22.05;49.60;97210.38;1726903;83;21479;-67
2022/06/22 12:20:55;;;;;;;2.52;0.90;;;;;;;22.28;45.94;97208.16;1730468;81;21345;-62
2022/06/22 12:23:52;;;;;;;4.35;1.12;;;;;;;22.34;45.68;97216.15;1756030;81;20931;-61
2022/06/22 12:26:43;;;;;;;2.27;1.02;;;;;;;22.04;46.51;97216.44;1756868;81;20876;-62
2022/06/22 12:29:27;;;;;;;3.70;0.75;;;;;;;21.85;47.19;97230.36;1756871;81;21066;-65
2022/06/22 12:32:12;;;;;;;3.75;0.80;;;;;;;21.92;46.23;97221.43;1730439;82;21161;-66
2022/06/22 12:34:47;;;;;;;7.90;1.22;;;;;;;22.15;46.23;97221.92;1694382;84;20908;-69
2022/06/22 12:37:19;;;;;;;1.02;0.80;;;;;;;22.42;44.73;97213.66;1721887;83;20972;-66
2022/06/22 12:39:55;;;;;;;4.67;0.90;;;;;;;22.60;44.04;97224.02;1725855;82;21008;-68
2022/06/22 12:42:55;;;;;;;1.55;0.93;;;;;;;22.50;44.03;97208.39;1726854;82;21390;-63
2022/06/22 12:45:54;;;;;;;3.12;1.07;;;;;;;22.37;43.87;97212.08;1727252;82;20987;-63
2022/06/22 12:48:44;;;;;;;3.83;0.80;;;;;;;22.48;46.11;97221.64;1727877;83;20900;-62
2022/06/22 12:51:36;;;;;;;2.95;1.00;;;;;;;22.53;43.86;97221.84;1730028;83;21427;-68
2022/06/22 12:54:19;;;;;;;2.47;0.90;;;;;;;22.47;44.36;97219.50;1729671;82;20936;-66
2022/06/22 12:57:00;;;;;;;2.83;0.70;;;;;;;22.45;44.73;97227.86;1730051;83;21155;-61
2022/06/22 12:59:36;;;;;;;2.67;0.90;;;;;;;22.58;43.67;97209.98;1729396;83;20884;-63
2022/06/22 13:02:06;;;;;;;1.20;0.72;;;;;;;22.45;45.09;97210.13;1730182;83;25285;-67
2022/06/22 13:04:35;;;;;;;1.65;0.82;;;;;;;22.55;44.69;97222.24;1730212;82;20900;-65
2022/06/22 13:07:07;;;;;;;1.45;0.80;;;;;;;22.70;43.56;97234.22;1730392;82;20939;-63
2022/06/22 13:09:34;;;;;;;2.65;0.80;;;;;;;22.90;42.81;97232.67;1730130;83;21116;-66
2022/06/22 13:12:03;;;;;;;3.85;0.80;;;;;;;22.74;40.43;97224.08;1730300;82;21408;-61
2022/06/22 13:14:48;;;;;;;1.92;1.02;;;;;;;22.44;41.13;97237.23;1729938;83;20908;-58
2022/06/22 13:17:47;;;;;;;2.40;0.70;;;;;;;22.45;42.19;97238.78;1729561;82;21038;-65
2022/06/22 13:20:41;;;;;;;0.90;0.60;;;;;;;22.71;43.09;97228.94;1730209;82;21101;-63
2022/06/22 13:23:21;;;;;;;1.12;0.68;;;;;;;23.18;43.16;97231.12;1730102;82;21131;-66
2022/06/22 13:25:56;;;;;;;2.98;0.70;;;;;;;23.55;41.74;97227.44;1730348;83;20996;-66
2022/06/22 13:28:52;;;;;;;0.80;0.50;;;;;;;23.72;40.72;97219.77;1730175;82;20920;-65
2022/06/22 13:31:32;;;;;;;1.30;0.78;;;;;;;23.84;40.86;97226.19;1730144;83;20924;-64
2022/06/22 13:34:08;;;;;;;3.17;0.90;;;;;;;24.05;40.66;97234.33;1730141;83;20975;-59
2022/06/22 13:36:52;;;;;;;2.70;0.75;;;;;;;24.15;40.41;97218.50;1730499;82;21510;-66
2022/06/22 13:39:34;;;;;;;4.08;0.70;;;;;;;24.38;41.11;97224.26;1730078;83;21380;-62
2022/06/22 13:42:31;;;;;;;3.25;0.90;;;;;;;24.49;39.29;97220.87;1730077;83;20853;-64
2022/06/22 13:45:36;;;;;;;2.83;0.80;;;;;;;24.59;40.13;97216.52;1730041;83;20924;-66
2022/06/22 13:48:24;;;;;;;8.35;0.88;;;;;;;24.80;37.29;97225.23;1694201;84;21076;-65
2022/06/22 13:51:40;;;;;;;1.32;0.70;;;;;;;24.68;38.68;97231.16;1714423;83;21130;-60
2022/06/22 13:54:48;;;;;;;1.27;0.70;;;;;;;24.91;37.69;97239.63;1730333;82;20915;-66
2022/06/22 13:57:26;;;;;;;2.35;0.80;;;;;;;24.44;38.02;97244.58;1735080;81;20925;-66
2022/06/22 14:00:18;;;;;;;3.12;0.70;;;;;;;23.43;39.47;97262.00;1698891;84;20992;-67
2022/06/22 14:03:16;;;;;;;1.87;0.68;;;;;;;22.58;40.04;97259.11;1699380;84;21012;-69
2022/06/22 14:05:54;;;;;;;1.82;0.80;;;;;;;22.17;41.25;97263.22;1699343;84;21194;-64
2022/06/22 14:08:32;;;;;;;3.85;0.80;;;;;;;22.11;41.81;97256.58;1698992;84;20893;-67
2022/06/22 14:11:35;;;;;;;2.77;0.78;;;;;;;22.05;42.01;97255.37;1695926;84;20916;-64
2022/06/22 14:14:14;;;;;;;2.30;0.82;;;;;;;22.20;42.89;97255.65;1699309;83;21011;-66
2022/06/22 14:17:07;;;;;;;1.67;0.95;;;;;;;22.50;43.28;97273.88;1699579;83;21407;-67
2022/06/22 14:19:58;;;;;;;0.90;0.70;;;;;;;23.02;41.76;97276.00;1699356;83;21236;-67
2022/06/22 14:22:31;;;;;;;3.33;0.82;;;;;;;23.40;41.57;97269.02;1699582;84;21459;-63
2022/06/22 14:24:59;;;;;;;1.72;0.70;;;;;;;23.68;41.56;97280.52;1699422;84;20896;-65
2022/06/22 14:27:55;;;;;;;1.72;0.72;;;;;;;23.88;40.24;97278.94;1699638;83;20935;-63
2022/06/22 14:30:48;;;;;;;3.67;0.85;;;;;;;23.94;41.20;97280.66;1697189;84;21067;-63
2022/06/22 14:33:34;;;;;;;3.20;0.90;;;;;;;23.67;40.11;97288.53;1699763;83;21184;-66
2022/06/22 14:36:31;;;;;;;1.82;0.90;;;;;;;23.15;41.32;97299.02;1699471;84;20884;-62
2022/06/22 14:39:26;;;;;;;2.87;1.20;;;;;;;22.71;43.51;97306.73;1699444;84;20912;-61
2022/06/22 14:42:24;;;;;;;1.60;0.78;;;;;;;22.22;43.94;97301.05;1699543;84;21017;-68
2022/06/22 14:45:13;;;;;;;2.62;0.90;;;;;;;22.05;44.92;97312.63;1699437;83;21004;-62
2022/06/22 14:47:54;;;;;;;2.35;0.93;;;;;;;21.88;45.33;97314.69;1728390;83;21046;-65
2022/06/22 14:50:35;;;;;;;2.42;1.02;;;;;;;22.06;45.32;97316.36;1728335;82;20900;-65
2022/06/22 14:53:08;;;;;;;1.98;0.90;;;;;;;22.36;44.84;97322.94;1728379;83;20921;-62
2022/06/22 14:55:54;;;;;;;3.70;1.10;;;;;;;22.63;44.84;97325.63;1700002;83;20905;-68
2022/06/22 14:59:00;;;;;;;3.30;1.05;;;;;;;22.87;44.13;97323.54;1728472;83;20920;-59
2022/06/22 15:01:35;;;;;;;4.40;1.00;;;;;;;23.10;42.54;97325.34;1728875;82;21368;-64
2022/06/22 15:04:43;;;;;;;1.40;0.90;;;;;;;23.17;42.07;97327.91;1728375;82;20975;-63
2022/06/22 15:07:39;;;;;;;2.25;0.85;;;;;;;23.15;43.18;97333.16;1722025;82;20915;-61
2022/06/22 15:10:28;;;;;;;2.62;0.90;;;;;;;23.22;42.49;97331.05;1750051;82;20864;-63
2022/06/22 15:13:07;;;;;;;1.52;0.98;;;;;;;22.90;43.51;97341.89;1750334;82;20940;-60
2022/06/22 15:16:03;;;;;;;1.95;0.93;;;;;;;22.43;44.60;97339.34;1750322;82;21920;-61
2022/06/22 15:19:00;;;;;;;1.22;0.80;;;;;;;22.03;45.78;97337.56;1750454;82;20916;-62
